createdAt,value
2018-12-13T00:01:11.483Z,16.23
2018-12-13T00:04:20.293Z,17.37
2018-12-13T00:07:26.232Z,18.70
2018-12-13T00:10:32.775Z,16.73
2018-12-13T00:13:39.602Z,16.17
2018-12-13T00:16:45.593Z,19.52
2018-12-13T00:19:51.474Z,17.82
2018-12-13T00:22:57.087Z,17.20
2018-12-13T00:26:03.124Z,16.87
2018-12-13T00:29:08.713Z,17.43
2018-12-13T00:32:14.310Z,15.30
2018-12-13T00:35:19.957Z,18.70
2018-12-13T00:38:25.931Z,20.43
2018-12-13T00:41:31.517Z,20.50
2018-12-13T00:44:37.164Z,19.77
2018-12-13T00:47:43.126Z,17.02
2018-12-13T00:50:49.288Z,19.65
2018-12-13T00:53:55.480Z,20.37
2018-12-13T00:57:01.412Z,17.67
2018-12-13T01:00:08.474Z,18.30
2018-12-13T01:03:14.382Z,19.50
2018-12-13T01:06:20.992Z,21.70
2018-12-13T01:09:27.329Z,18.90
2018-12-13T01:12:33.428Z,20.35
2018-12-13T01:15:39.302Z,19.62
2018-12-13T01:18:45.196Z,19.67
2018-12-13T01:21:50.789Z,19.62
2018-12-13T01:24:56.659Z,17.82
2018-12-13T01:28:03.024Z,20.60
2018-12-13T01:31:08.918Z,20.27
2018-12-13T01:34:14.796Z,18.48
2018-12-13T01:37:21.047Z,21.77
2018-12-13T01:40:26.916Z,18.45
2018-12-13T01:43:32.816Z,20.48
2018-12-13T01:46:40.995Z,18.02
2018-12-13T01:49:48.993Z,19.60
2018-12-13T01:52:56.580Z,21.45
2018-12-13T01:56:04.338Z,17.65
2018-12-13T01:59:11.884Z,16.90
2018-12-13T02:02:19.331Z,19.17
2018-12-13T02:05:26.294Z,19.50
2018-12-13T02:08:34.113Z,17.45
2018-12-13T02:11:41.276Z,16.35
2018-12-13T02:14:48.559Z,17.52
2018-12-13T02:17:55.863Z,19.95
2018-12-13T02:21:04.390Z,17.92
2018-12-13T02:24:11.378Z,18.27
2018-12-13T02:27:18.975Z,18.20
2018-12-13T02:30:26.458Z,19.23
2018-12-13T02:33:33.469Z,16.62
2018-12-13T02:36:40.090Z,15.50
2018-12-13T02:39:46.379Z,19.20
2018-12-13T02:42:52.254Z,19.45
2018-12-13T02:45:58.279Z,18.00
2018-12-13T02:49:10.543Z,16.07
2018-12-13T02:52:16.425Z,17.95
2018-12-13T02:55:22.316Z,15.65
2018-12-13T02:58:28.220Z,16.48
2018-12-13T03:01:33.809Z,14.35
2018-12-13T03:04:39.696Z,16.90
2018-12-13T03:07:45.619Z,16.17
2018-12-13T03:10:51.248Z,17.07
2018-12-13T03:13:57.058Z,17.25
2018-12-13T03:17:04.186Z,15.70
2018-12-13T03:20:10.504Z,15.60
2018-12-13T03:23:16.106Z,14.97
2018-12-13T03:26:22.658Z,14.43
2018-12-13T03:29:28.287Z,15.10
2018-12-13T03:32:34.162Z,13.75
2018-12-13T03:35:40.062Z,14.03
2018-12-13T03:38:45.644Z,15.27
2018-12-13T03:41:51.691Z,14.50
2018-12-13T03:44:57.610Z,14.47
2018-12-13T03:48:03.490Z,15.58
2018-12-13T03:51:09.529Z,14.30
2018-12-13T03:54:15.483Z,16.25
2018-12-13T03:57:21.370Z,15.03
2018-12-13T04:00:27.262Z,16.35
2018-12-13T04:03:33.141Z,15.80
2018-12-13T04:06:39.013Z,17.37
2018-12-13T04:09:44.627Z,16.52
2018-12-13T04:12:50.534Z,16.45
2018-12-13T04:15:56.195Z,15.55
2018-12-13T04:19:02.571Z,16.40
2018-12-13T04:22:09.060Z,15.45
2018-12-13T04:25:14.949Z,15.48
2018-12-13T04:28:20.815Z,15.28
2018-12-13T04:31:27.226Z,17.10
2018-12-13T04:34:33.141Z,59.27
2018-12-13T04:37:39.052Z,21.33
2018-12-13T04:40:44.932Z,15.93
2018-12-13T04:43:50.884Z,15.63
2018-12-13T04:46:58.773Z,16.27
2018-12-13T04:50:06.617Z,15.32
2018-12-13T04:53:12.760Z,16.85
2018-12-13T04:56:18.966Z,15.23
2018-12-13T04:59:24.922Z,14.63
2018-12-13T05:02:30.769Z,17.25
2018-12-13T05:05:36.848Z,15.28
2018-12-13T05:08:43.159Z,16.30
2018-12-13T05:11:48.788Z,17.05
2018-12-13T05:14:55.036Z,15.30
2018-12-13T05:18:00.919Z,16.65
2018-12-13T05:21:07.268Z,17.17
2018-12-13T05:24:13.462Z,17.82
2018-12-13T05:27:25.849Z,15.98
2018-12-13T05:30:33.182Z,14.45
2018-12-13T05:33:41.004Z,13.75
2018-12-13T05:36:46.662Z,15.80
2018-12-13T05:39:52.270Z,18.57
2018-12-13T05:42:57.846Z,19.00
2018-12-13T05:46:03.616Z,18.32
2018-12-13T05:49:09.566Z,18.30
2018-12-13T05:52:15.472Z,20.23
2018-12-13T05:55:21.395Z,20.25
2018-12-13T05:58:27.261Z,17.95
2018-12-13T06:01:39.582Z,17.62
2018-12-13T06:04:45.474Z,17.32
2018-12-13T06:07:54.884Z,16.12
2018-12-13T06:10:59.392Z,19.85
2018-12-13T06:14:05.286Z,15.75
2018-12-13T06:17:11.195Z,18.48
2018-12-13T06:20:17.159Z,19.05
2018-12-13T06:23:23.307Z,17.10
2018-12-13T06:26:29.196Z,18.20
2018-12-13T06:29:41.593Z,18.30
2018-12-13T06:32:42.760Z,17.35
2018-12-13T06:35:48.672Z,18.13
2018-12-13T06:38:54.713Z,19.93
2018-12-13T06:42:00.609Z,21.02
2018-12-13T06:45:08.261Z,20.55
2018-12-13T06:48:14.236Z,21.50
2018-12-13T06:51:20.348Z,19.27
2018-12-13T06:54:26.232Z,19.35
2018-12-13T06:57:32.111Z,20.00
2018-12-13T07:00:38.385Z,17.75
2018-12-13T07:03:44.280Z,15.80
2018-12-13T07:06:50.995Z,17.90
2018-12-13T07:09:57.037Z,19.93
2018-12-13T07:13:02.654Z,27.87
2018-12-13T07:16:08.313Z,30.57
2018-12-13T07:19:13.966Z,22.90
2018-12-13T07:22:19.597Z,24.47
2018-12-13T07:25:25.207Z,26.00
2018-12-13T07:28:30.879Z,22.37
2018-12-13T07:31:36.495Z,20.15
2018-12-13T07:34:42.098Z,22.55
2018-12-13T07:37:47.835Z,18.55
2018-12-13T07:40:54.010Z,16.53
2018-12-13T07:43:59.876Z,18.52
2018-12-13T07:47:05.815Z,19.10
2018-12-13T07:50:11.863Z,20.02
2018-12-13T07:53:17.809Z,18.67
2018-12-13T07:56:23.719Z,17.30
2018-12-13T07:59:29.592Z,17.95
2018-12-13T08:02:35.218Z,16.82
2018-12-13T08:05:40.833Z,15.58
2018-12-13T08:08:46.433Z,15.38
2018-12-13T08:11:52.327Z,15.80
2018-12-13T08:14:58.153Z,13.95
2018-12-13T08:18:03.740Z,13.53
2018-12-13T08:21:11.314Z,13.53
2018-12-13T08:24:17.188Z,15.50
2018-12-13T08:27:24.490Z,14.93
2018-12-13T08:30:30.392Z,13.28
2018-12-13T08:33:37.021Z,13.20
2018-12-13T08:36:42.617Z,13.60
2018-12-13T08:39:48.211Z,14.23
2018-12-13T08:42:54.462Z,14.45
2018-12-13T08:46:00.512Z,16.17
2018-12-13T08:49:07.174Z,18.32
2018-12-13T08:52:13.696Z,17.98
2018-12-13T08:55:19.588Z,19.12
2018-12-13T08:58:25.183Z,18.77
2018-12-13T09:01:31.060Z,17.42
2018-12-13T09:04:36.634Z,19.60
2018-12-13T09:07:42.242Z,20.17
2018-12-13T09:10:48.225Z,17.35
2018-12-13T09:13:53.844Z,15.50
2018-12-13T09:16:59.765Z,15.37
2018-12-13T09:20:07.202Z,13.38
2018-12-13T09:23:13.100Z,13.57
2018-12-13T09:26:19.277Z,14.77
2018-12-13T09:29:26.214Z,16.50
2018-12-13T09:32:32.115Z,22.33
2018-12-13T09:35:37.709Z,19.80
2018-12-13T09:38:43.923Z,17.75
2018-12-13T09:41:49.832Z,17.48
2018-12-13T09:44:55.869Z,14.93
2018-12-13T09:48:01.482Z,18.12
2018-12-13T09:51:07.117Z,15.43
2018-12-13T09:54:12.983Z,16.75
2018-12-13T09:57:19.354Z,16.77
2018-12-13T10:00:25.572Z,14.80
2018-12-13T10:03:31.623Z,15.60
2018-12-13T10:06:37.522Z,15.58
2018-12-13T10:09:43.407Z,15.35
2018-12-13T10:12:49.207Z,16.75
2018-12-13T10:15:55.388Z,11.00
2018-12-13T10:19:01.255Z,13.53
2018-12-13T10:22:11.612Z,14.85
2018-12-13T10:25:15.248Z,12.93
2018-12-13T10:28:21.497Z,13.40
2018-12-13T10:31:27.386Z,12.50
2018-12-13T10:34:32.981Z,14.87
2018-12-13T10:37:38.592Z,13.00
2018-12-13T10:40:44.440Z,14.38
2018-12-13T10:43:52.901Z,13.58
2018-12-13T10:46:59.248Z,15.15
2018-12-13T10:50:07.192Z,12.73
2018-12-13T10:53:13.069Z,13.15
2018-12-13T10:56:18.961Z,11.90
2018-12-13T10:59:24.769Z,12.25
2018-12-13T11:03:40.873Z,12.93
2018-12-13T11:06:46.741Z,12.23
2018-12-13T11:09:52.471Z,9.18
2018-12-13T11:12:58.114Z,11.73
2018-12-13T11:16:04.022Z,11.50
2018-12-13T11:19:09.668Z,9.23
2018-12-13T11:22:15.291Z,10.20
2018-12-13T11:25:21.275Z,10.93
2018-12-13T11:30:06.537Z,11.77
2018-12-13T11:33:13.580Z,10.70
2018-12-13T11:36:21.126Z,9.95
2018-12-13T11:39:27.066Z,8.58
2018-12-13T11:42:32.951Z,9.10
2018-12-13T11:45:38.997Z,11.20
2018-12-13T11:48:44.913Z,9.15
2018-12-13T11:51:50.767Z,11.50
2018-12-13T11:55:00.158Z,10.05
2018-12-13T11:58:13.389Z,9.80
2018-12-13T12:01:18.973Z,10.55
2018-12-13T12:04:25.153Z,11.50
2018-12-13T12:07:30.895Z,11.10
2018-12-13T12:10:36.511Z,11.27
2018-12-13T12:13:42.839Z,9.98
2018-12-13T12:16:48.700Z,10.45
2018-12-13T12:19:55.479Z,9.08
2018-12-13T12:23:01.354Z,9.10
2018-12-13T12:26:06.939Z,9.13
2018-12-13T12:29:13.873Z,8.65
2018-12-13T12:32:19.773Z,9.50
2018-12-13T12:35:25.382Z,11.53
2018-12-13T12:38:31.272Z,9.57
2018-12-13T12:41:36.988Z,10.23
2018-12-13T12:44:42.776Z,10.72
2018-12-13T12:47:48.381Z,8.87
2018-12-13T12:50:54.231Z,8.63
2018-12-13T12:53:59.844Z,10.03
2018-12-13T12:57:05.868Z,9.75
2018-12-13T13:00:12.217Z,10.35
2018-12-13T13:03:18.087Z,12.80
2018-12-13T13:06:23.671Z,10.58
2018-12-13T13:09:29.531Z,10.00
2018-12-13T13:12:35.532Z,10.70
2018-12-13T13:15:41.361Z,11.00
2018-12-13T13:18:47.360Z,10.48
2018-12-13T13:21:53.224Z,10.25
2018-12-13T13:24:59.116Z,11.35
2018-12-13T13:28:05.212Z,10.72
2018-12-13T13:31:11.091Z,9.43
2018-12-13T13:34:23.966Z,11.43
2018-12-13T13:37:32.849Z,11.83
2018-12-13T13:40:38.767Z,10.75
2018-12-13T13:43:44.663Z,11.37
2018-12-13T13:46:50.259Z,12.53
2018-12-13T13:49:56.169Z,11.73
2018-12-13T13:53:01.771Z,10.23
2018-12-13T13:56:07.639Z,10.87
2018-12-13T13:59:13.254Z,10.90
2018-12-13T14:02:19.441Z,10.85
2018-12-13T14:05:25.334Z,11.60
2018-12-13T14:08:31.242Z,10.80
2018-12-13T14:11:37.129Z,11.90
2018-12-13T14:14:44.292Z,12.82
2018-12-13T14:17:50.291Z,12.75
2018-12-13T14:20:56.164Z,10.65
2018-12-13T14:24:02.026Z,10.50
2018-12-13T14:27:07.937Z,11.83
2018-12-13T14:30:13.808Z,12.60
2018-12-13T14:33:19.973Z,13.00
2018-12-13T14:36:25.827Z,10.85
2018-12-13T14:39:32.493Z,13.15
2018-12-13T14:42:40.564Z,13.68
2018-12-13T14:45:46.154Z,14.57
2018-12-13T14:48:52.035Z,17.07
2018-12-13T14:51:57.599Z,16.73
2018-12-13T14:55:03.945Z,15.40
2018-12-13T14:58:09.873Z,14.60
2018-12-13T15:01:15.735Z,14.07
2018-12-13T15:04:21.634Z,13.50
2018-12-13T15:07:28.267Z,15.50
2018-12-13T15:10:34.106Z,11.95
2018-12-13T15:13:40.006Z,14.03
2018-12-13T15:16:45.706Z,16.23
2018-12-13T15:19:51.398Z,16.37
2018-12-13T15:22:57.027Z,16.75
2018-12-13T15:26:02.612Z,13.08
2018-12-13T15:29:09.312Z,13.43
2018-12-13T15:32:15.178Z,16.60
2018-12-13T15:35:21.298Z,11.78
2018-12-13T15:38:26.863Z,15.37
2018-12-13T15:41:32.725Z,16.50
2018-12-13T15:44:38.375Z,14.53
2018-12-13T15:47:43.957Z,15.83
2018-12-13T15:50:49.921Z,15.32
2018-12-13T15:53:55.862Z,15.00
2018-12-13T15:57:01.420Z,15.97
2018-12-13T16:00:09.894Z,17.52
2018-12-13T16:03:17.485Z,16.80
2018-12-13T16:06:23.369Z,14.83
2018-12-13T16:09:29.236Z,14.70
2018-12-13T16:12:35.698Z,9.85
2018-12-13T16:15:41.608Z,12.30
2018-12-13T16:18:48.860Z,13.32
2018-12-13T16:21:55.463Z,10.13
2018-12-13T16:25:02.278Z,14.27
2018-12-13T16:28:09.565Z,13.75
2018-12-13T16:31:16.413Z,10.03
2018-12-13T16:34:23.602Z,10.23
2018-12-13T16:37:30.843Z,10.93
2018-12-13T16:40:39.428Z,8.53
2018-12-13T16:43:47.369Z,10.00
2018-12-13T16:46:54.660Z,10.55
2018-12-13T16:50:00.727Z,8.10
2018-12-13T16:53:06.567Z,9.48
2018-12-13T16:56:13.173Z,10.68
2018-12-13T16:59:19.971Z,10.13
2018-12-13T17:02:25.831Z,12.68
2018-12-13T17:05:32.423Z,11.75
2018-12-13T17:08:38.987Z,10.82
2018-12-13T17:11:44.883Z,12.50
2018-12-13T17:14:50.760Z,11.73
2018-12-13T17:17:56.366Z,13.60
2018-12-13T17:21:02.248Z,10.60
2018-12-13T17:24:07.824Z,12.05
2018-12-13T17:27:13.920Z,11.85
2018-12-13T17:30:20.850Z,10.77
2018-12-13T17:33:26.781Z,12.03
2018-12-13T17:36:32.673Z,11.90
2018-12-13T17:39:38.538Z,11.22
2018-12-13T17:42:44.417Z,12.10
2018-12-13T17:45:50.076Z,10.33
2018-12-13T17:48:55.696Z,9.60
2018-12-13T17:52:06.874Z,12.33
2018-12-13T17:55:13.055Z,10.32
2018-12-13T17:58:19.255Z,9.50
2018-12-13T18:01:25.151Z,9.55
2018-12-13T18:04:31.041Z,10.75
2018-12-13T18:07:38.200Z,8.48
2018-12-13T18:10:43.812Z,10.13
2018-12-13T18:13:49.426Z,9.88
2018-12-13T18:16:55.511Z,9.03
2018-12-13T18:20:01.744Z,10.78
2018-12-13T18:23:08.266Z,8.08
2018-12-13T18:26:14.153Z,8.78
2018-12-13T18:29:20.010Z,9.38
2018-12-13T18:32:26.638Z,8.10
2018-12-13T18:35:32.504Z,9.33
2018-12-13T18:38:38.095Z,9.40
2018-12-13T18:41:44.282Z,9.33
2018-12-13T18:44:50.133Z,8.28
2018-12-13T18:47:56.014Z,9.85
2018-12-13T18:51:01.944Z,9.33
2018-12-13T18:54:07.812Z,10.10
2018-12-13T18:57:13.541Z,9.37
2018-12-13T19:00:19.131Z,9.60
2018-12-13T19:03:24.995Z,10.10
2018-12-13T19:06:30.595Z,10.43
2018-12-13T19:09:37.772Z,9.55
2018-12-13T19:12:45.303Z,9.83
2018-12-13T19:15:51.524Z,10.18
2018-12-13T19:18:57.959Z,8.15
2018-12-13T19:22:05.652Z,9.65
2018-12-13T19:25:12.116Z,10.35
2018-12-13T19:28:20.467Z,8.70
2018-12-13T19:31:27.597Z,8.60
2018-12-13T19:34:34.566Z,8.40
2018-12-13T19:37:41.638Z,9.48
2018-12-13T19:40:48.518Z,8.40
2018-12-13T19:43:57.811Z,8.93
2018-12-13T19:47:05.676Z,9.05
2018-12-13T19:50:11.930Z,9.40
2018-12-13T19:53:19.428Z,8.90
2018-12-13T19:56:27.013Z,8.45
2018-12-13T19:59:34.279Z,9.40
2018-12-13T20:02:40.252Z,9.30
2018-12-13T20:05:45.859Z,8.35
2018-12-13T20:08:51.814Z,9.45
2018-12-13T20:11:57.743Z,9.17
2018-12-13T20:15:04.337Z,9.65
2018-12-13T20:18:10.156Z,10.60
2018-12-13T20:21:16.187Z,12.20
2018-12-13T20:24:22.083Z,7.92
2018-12-13T20:27:28.061Z,10.23
2018-12-13T20:30:34.288Z,11.27
2018-12-13T20:33:40.349Z,8.63
2018-12-13T20:36:46.334Z,8.40
2018-12-13T20:39:53.300Z,9.50
2018-12-13T20:43:00.735Z,9.80
2018-12-13T20:46:07.514Z,10.05
2018-12-13T20:49:15.617Z,9.45
2018-12-13T20:52:22.791Z,10.75
2018-12-13T20:55:29.766Z,10.28
2018-12-13T20:58:37.692Z,11.90
2018-12-13T21:01:43.649Z,11.33
2018-12-13T21:04:49.784Z,11.33
2018-12-13T21:08:00.245Z,9.83
2018-12-13T21:11:07.633Z,10.47
2018-12-13T21:14:13.898Z,8.65
2018-12-13T21:17:19.491Z,9.00
2018-12-13T21:20:25.336Z,9.00
2018-12-13T21:23:31.213Z,8.35
2018-12-13T21:26:36.872Z,8.68
2018-12-13T21:29:42.724Z,8.43
2018-12-13T21:32:48.361Z,9.23
2018-12-13T21:35:54.439Z,10.53
2018-12-13T21:39:00.360Z,12.33
2018-12-13T21:42:06.884Z,11.38
2018-12-13T21:45:13.192Z,10.85
2018-12-13T21:48:19.078Z,8.25
2018-12-13T21:51:24.651Z,10.95
2018-12-13T21:54:37.553Z,11.22
2018-12-13T21:57:43.155Z,9.30
2018-12-13T22:00:49.055Z,11.77
2018-12-13T22:03:54.658Z,8.80
2018-12-13T22:07:00.527Z,9.63
2018-12-13T22:10:07.913Z,11.00
2018-12-13T22:13:14.838Z,10.43
2018-12-13T22:16:20.892Z,12.17
2018-12-13T22:19:26.810Z,11.73
2018-12-13T22:22:33.763Z,12.10
2018-12-13T22:25:39.631Z,13.72
2018-12-13T22:28:45.848Z,12.10
2018-12-13T22:31:52.313Z,10.68
2018-12-13T22:34:57.918Z,12.10
2018-12-13T22:38:04.052Z,11.97
2018-12-13T22:41:10.251Z,14.87
2018-12-13T22:44:16.150Z,12.00
2018-12-13T22:47:21.761Z,13.05
2018-12-13T22:50:28.147Z,11.55
2018-12-13T22:53:35.026Z,12.18
2018-12-13T22:56:40.913Z,11.22
2018-12-13T22:59:46.788Z,12.10
2018-12-13T23:02:52.387Z,13.15
2018-12-13T23:05:58.250Z,11.88
2018-12-13T23:09:07.745Z,8.98
2018-12-13T23:12:15.661Z,8.33
2018-12-13T23:15:21.260Z,7.90
2018-12-13T23:18:27.143Z,8.88
2018-12-13T23:21:32.707Z,7.53
2018-12-13T23:24:38.595Z,10.05
2018-12-13T23:27:44.899Z,6.95
2018-12-13T23:30:50.776Z,7.62
2018-12-13T23:33:56.647Z,9.83
2018-12-13T23:37:02.258Z,9.10
2018-12-13T23:40:08.914Z,8.95
2018-12-13T23:43:14.785Z,7.28
2018-12-13T23:46:20.352Z,8.13
2018-12-13T23:49:26.243Z,8.90
2018-12-13T23:52:31.835Z,5.80
2018-12-13T23:55:38.171Z,6.53
2018-12-13T23:58:44.675Z,7.35
